Time;durP1;ratioP1;P1;durP2;ratioP2;P2;SDS_P1;SDS_P2;PMS_P1;PMS_P2;Temp;Humidity;BMP_temperature;BMP_pressure;BME280_temperature;BME280_humidity;BME280_pressure;Samples;Min_cycle;Max_cycle;Signal;HPM_P1;HPM_P2
2023/10/21 00:02:12;;;;;;;2.53;1.48;;;15.50;99.90;;;;;;5037497;28;20063;-84
2023/10/21 00:04:38;;;;;;;1.85;1.65;;;15.50;99.90;;;;;;5041735;28;20112;-84
2023/10/21 00:07:04;;;;;;;8.27;2.13;;;15.50;99.90;;;;;;5037575;28;20568;-83
2023/10/21 00:09:29;;;;;;;7.90;1.65;;;15.50;99.90;;;;;;5034127;28;20029;-84
2023/10/21 00:11:55;;;;;;;5.25;1.55;;;15.50;99.90;;;;;;5039895;28;20021;-83
2023/10/21 00:14:21;;;;;;;4.78;2.13;;;15.60;99.90;;;;;;5049839;27;20026;-83
2023/10/21 00:16:48;;;;;;;3.05;1.85;;;15.60;99.90;;;;;;5041393;28;20103;-84
2023/10/21 00:19:14;;;;;;;2.13;1.40;;;15.60;99.90;;;;;;5036302;28;20438;-83
2023/10/21 00:21:39;;;;;;;1.73;1.30;;;15.60;99.90;;;;;;5038973;28;20021;-84
2023/10/21 00:24:06;;;;;;;1.90;1.23;;;15.60;99.90;;;;;;5038742;28;20022;-84
2023/10/21 00:26:47;;;;;;;4.30;1.38;;;15.50;99.90;;;;;;5038602;28;20073;-84
2023/10/21 00:29:14;;;;;;;2.38;1.40;;;15.50;99.90;;;;;;5035607;28;20021;-83
2023/10/21 00:31:40;;;;;;;3.08;1.42;;;15.60;99.90;;;;;;5036071;28;20048;-84
2023/10/21 00:34:06;;;;;;;3.20;1.20;;;15.50;99.90;;;;;;5036266;28;20076;-82
2023/10/21 00:36:32;;;;;;;5.53;1.58;;;15.50;99.90;;;;;;5040052;28;20091;-84
2023/10/21 00:38:59;;;;;;;3.53;1.52;;;15.60;99.90;;;;;;5038134;28;20049;-84
2023/10/21 00:41:24;;;;;;;6.40;1.75;;;15.60;99.90;;;;;;5040945;28;20056;-84
2023/10/21 00:43:50;;;;;;;3.35;1.33;;;15.50;99.90;;;;;;5042835;27;20473;-84
2023/10/21 00:46:19;;;;;;;3.30;1.40;;;15.50;99.90;;;;;;5040009;28;20097;-83
2023/10/21 00:48:46;;;;;;;3.45;1.45;;;15.50;99.90;;;;;;5037544;28;20057;-83
2023/10/21 00:51:12;;;;;;;2.20;1.13;;;15.40;99.90;;;;;;5037284;28;20021;-83
2023/10/21 00:53:38;;;;;;;7.15;1.45;;;15.40;99.90;;;;;;5039509;28;20093;-84
2023/10/21 00:56:08;;;;;;;6.55;1.00;;;15.40;99.90;;;;;;5035554;28;20125;-83
2023/10/21 00:58:35;;;;;;;5.85;1.50;;;15.40;99.90;;;;;;5038165;28;20434;-84
2023/10/21 01:01:02;;;;;;;3.80;1.40;;;15.40;99.90;;;;;;5038389;28;20017;-83
2023/10/21 01:03:29;;;;;;;3.13;1.40;;;15.50;99.90;;;;;;5036001;28;20393;-83
2023/10/21 01:05:55;;;;;;;1.63;1.35;;;15.50;99.90;;;;;;5039884;28;20084;-83
2023/10/21 01:08:21;;;;;;;2.25;1.33;;;15.40;99.90;;;;;;5037389;28;20441;-83
2023/10/21 01:10:47;;;;;;;1.88;1.23;;;15.40;99.90;;;;;;5038120;28;20025;-83
2023/10/21 01:13:13;;;;;;;2.20;1.10;;;15.50;99.90;;;;;;5059056;27;20021;-83
2023/10/21 01:15:40;;;;;;;4.18;1.50;;;15.40;99.90;;;;;;5030974;28;20029;-82
2023/10/21 01:18:06;;;;;;;3.78;1.17;;;15.40;99.90;;;;;;5029004;28;20060;-83
2023/10/21 01:20:32;;;;;;;2.28;1.15;;;15.40;99.90;;;;;;5036689;28;20060;-83
2023/10/21 01:22:59;;;;;;;2.95;1.30;;;15.40;99.90;;;;;;5038535;28;20495;-83
2023/10/21 01:25:25;;;;;;;3.30;1.10;;;15.50;99.90;;;;;;5039034;28;20640;-83
2023/10/21 01:27:54;;;;;;;4.03;1.45;;;15.50;99.90;;;;;;5036272;28;20026;-82
2023/10/21 01:30:21;;;;;;;2.00;1.13;;;15.50;99.90;;;;;;5038364;28;20022;-82
2023/10/21 01:32:47;;;;;;;3.80;1.83;;;15.50;99.90;;;;;;5038408;28;20530;-83
2023/10/21 01:35:14;;;;;;;1.52;1.30;;;15.60;99.90;;;;;;5041216;28;20045;-83
2023/10/21 01:37:40;;;;;;;3.28;1.27;;;15.60;99.90;;;;;;5040069;28;20029;-83
2023/10/21 01:40:06;;;;;;;5.75;1.33;;;15.60;99.90;;;;;;5039850;28;20030;-83
2023/10/21 01:42:34;;;;;;;2.63;1.25;;;15.60;99.90;;;;;;5035518;28;20033;-83
2023/10/21 01:45:00;;;;;;;5.05;2.30;;;15.60;99.90;;;;;;5042403;28;20392;-82
2023/10/21 01:47:26;;;;;;;3.20;1.20;;;15.60;99.90;;;;;;5038288;28;20487;-84
2023/10/21 01:49:53;;;;;;;4.18;1.23;;;15.50;99.90;;;;;;5041093;28;20021;-84
2023/10/21 01:52:19;;;;;;;9.65;1.48;;;15.60;99.90;;;;;;5041477;28;20021;-83
2023/10/21 01:54:44;;;;;;;3.33;1.73;;;15.60;99.90;;;;;;5040748;28;20021;-84
2023/10/21 01:57:10;;;;;;;6.38;1.40;;;15.60;99.90;;;;;;5042874;28;20377;-83
2023/10/21 01:59:40;;;;;;;2.70;1.17;;;15.60;99.90;;;;;;5031194;28;20029;-82
2023/10/21 02:02:06;;;;;;;3.33;1.42;;;15.60;99.90;;;;;;5037497;28;20098;-84
2023/10/21 02:04:32;;;;;;;1.40;1.13;;;15.60;99.90;;;;;;5041866;28;20025;-83
2023/10/21 02:06:58;;;;;;;2.13;1.13;;;15.60;99.90;;;;;;5039492;28;20507;-83
2023/10/21 02:09:23;;;;;;;2.08;1.20;;;15.60;99.90;;;;;;5042657;28;20047;-83
2023/10/21 02:11:49;;;;;;;3.85;1.13;;;15.60;99.90;;;;;;5038854;28;20025;-84
2023/10/21 02:14:15;;;;;;;7.43;2.38;;;15.60;99.90;;;;;;5046776;27;20017;-83
2023/10/21 02:16:40;;;;;;;6.13;1.20;;;15.60;99.90;;;;;;5041578;28;20028;-82
2023/10/21 02:19:06;;;;;;;5.93;1.48;;;15.60;99.90;;;;;;5039133;28;20552;-82
2023/10/21 02:21:32;;;;;;;6.30;2.35;;;15.60;99.90;;;;;;5035378;28;20158;-82
2023/10/21 02:23:57;;;;;;;8.38;1.63;;;15.60;99.90;;;;;;5039223;28;20061;-83
2023/10/21 02:26:23;;;;;;;4.47;1.30;;;15.70;99.90;;;;;;5039420;28;20030;-83
2023/10/21 02:28:49;;;;;;;6.80;1.27;;;15.70;99.90;;;;;;5039744;28;20029;-83
2023/10/21 02:31:17;;;;;;;11.30;2.13;;;15.70;99.90;;;;;;5042227;28;20021;-83
2023/10/21 02:33:43;;;;;;;3.67;1.45;;;15.70;99.90;;;;;;5039633;28;20034;-82
2023/10/21 02:36:09;;;;;;;3.58;1.20;;;15.70;99.90;;;;;;5039555;28;20094;-83
2023/10/21 02:38:35;;;;;;;1.30;1.05;;;15.70;99.90;;;;;;5041220;28;20029;-83
2023/10/21 02:41:03;;;;;;;6.68;1.77;;;15.70;99.90;;;;;;5039190;28;20565;-83
2023/10/21 02:43:29;;;;;;;2.20;1.40;;;15.80;99.90;;;;;;5039529;28;20025;-83
2023/10/21 02:45:55;;;;;;;4.88;1.33;;;15.70;99.90;;;;;;5039859;28;20032;-83
2023/10/21 02:48:20;;;;;;;4.88;1.65;;;15.70;99.90;;;;;;5040024;28;20025;-82
2023/10/21 02:50:46;;;;;;;4.07;1.38;;;15.70;99.90;;;;;;5040204;28;20021;-83
2023/10/21 02:53:11;;;;;;;5.00;1.40;;;15.70;99.90;;;;;;5038834;28;20113;-83
2023/10/21 02:55:37;;;;;;;6.03;1.67;;;15.70;99.90;;;;;;5039191;28;20475;-82
2023/10/21 02:58:04;;;;;;;5.45;1.52;;;15.70;99.90;;;;;;5040634;28;20029;-84
2023/10/21 03:00:29;;;;;;;3.67;1.33;;;15.70;99.90;;;;;;5040767;28;20022;-83
2023/10/21 03:02:55;;;;;;;3.03;1.60;;;15.70;99.90;;;;;;5037746;28;20033;-83
2023/10/21 03:05:21;;;;;;;3.90;1.63;;;15.70;99.90;;;;;;5041890;28;20028;-83
2023/10/21 03:07:48;;;;;;;3.67;1.67;;;15.80;99.90;;;;;;5037747;28;20502;-83
2023/10/21 03:10:14;;;;;;;7.82;1.60;;;15.80;99.90;;;;;;5038884;28;20553;-82
2023/10/21 03:12:39;;;;;;;8.15;1.60;;;15.80;99.90;;;;;;5039631;28;20066;-83
2023/10/21 03:15:08;;;;;;;5.35;1.67;;;15.80;99.90;;;;;;5041590;28;20491;-84
2023/10/21 03:17:34;;;;;;;3.72;1.70;;;15.80;99.90;;;;;;5033993;28;20116;-83
2023/10/21 03:20:00;;;;;;;8.25;1.48;;;15.80;99.90;;;;;;5040419;28;20150;-83
2023/10/21 03:22:25;;;;;;;8.65;1.80;;;15.80;99.90;;;;;;5040330;28;20021;-83
2023/10/21 03:24:51;;;;;;;6.95;2.38;;;15.80;99.90;;;;;;5038592;28;20388;-83
2023/10/21 03:27:17;;;;;;;5.43;1.27;;;15.80;99.90;;;;;;5039978;28;20036;-83
2023/10/21 03:29:42;;;;;;;4.65;1.60;;;15.80;99.90;;;;;;5036314;28;20031;-82
2023/10/21 03:32:11;;;;;;;9.13;2.00;;;15.80;99.90;;;;;;5040601;28;20014;-83
2023/10/21 03:34:37;;;;;;;4.05;1.63;;;15.80;99.90;;;;;;5040197;28;20025;-82
2023/10/21 03:37:03;;;;;;;6.63;1.70;;;15.90;99.90;;;;;;5038365;28;20112;-83
2023/10/21 03:39:28;;;;;;;2.60;1.23;;;15.90;99.90;;;;;;5040994;28;20403;-82
2023/10/21 03:41:54;;;;;;;6.53;1.90;;;15.80;99.90;;;;;;5039035;28;20094;-83
2023/10/21 03:44:20;;;;;;;6.10;1.40;;;15.80;99.90;;;;;;5049614;27;20086;-82
2023/10/21 03:46:45;;;;;;;5.53;1.75;;;15.90;99.90;;;;;;5038261;28;20060;-82
2023/10/21 03:49:11;;;;;;;12.18;1.80;;;15.80;99.90;;;;;;5041288;28;20438;-83
2023/10/21 03:51:37;;;;;;;3.95;1.70;;;15.90;99.90;;;;;;5038973;28;20385;-83
2023/10/21 03:54:04;;;;;;;11.95;1.70;;;15.90;99.90;;;;;;5040047;28;20025;-83
2023/10/21 03:56:29;;;;;;;8.50;1.70;;;15.90;99.90;;;;;;5039909;28;20026;-82
2023/10/21 03:58:56;;;;;;;10.07;2.55;;;15.90;99.90;;;;;;5038157;28;20101;-83
2023/10/21 04:01:22;;;;;;;7.22;1.70;;;15.90;99.90;;;;;;5040844;28;20032;-83
2023/10/21 04:03:48;;;;;;;5.35;1.55;;;15.90;99.90;;;;;;5038629;28;20152;-83
2023/10/21 04:06:15;;;;;;;5.25;1.60;;;15.90;99.90;;;;;;5039509;28;20017;-83
2023/10/21 04:08:41;;;;;;;8.52;1.88;;;15.90;99.90;;;;;;5040887;28;20025;-82
2023/10/21 04:11:08;;;;;;;6.80;1.95;;;16.00;99.90;;;;;;5039900;28;20032;-83
2023/10/21 04:13:34;;;;;;;6.78;1.70;;;15.90;99.90;;;;;;5043939;27;20032;-82
2023/10/21 04:16:00;;;;;;;5.43;1.80;;;16.00;99.90;;;;;;5038918;28;20537;-83
2023/10/21 04:18:26;;;;;;;4.80;1.98;;;16.00;99.90;;;;;;5041631;28;20033;-83
2023/10/21 04:20:52;;;;;;;10.35;1.98;;;16.00;99.90;;;;;;5038447;28;20026;-83
2023/10/21 04:23:17;;;;;;;9.82;1.50;;;16.00;99.90;;;;;;5039318;28;20043;-82
2023/10/21 04:25:43;;;;;;;10.77;1.52;;;16.10;99.90;;;;;;5036937;28;20031;-83
2023/10/21 04:28:10;;;;;;;4.50;1.40;;;16.10;99.90;;;;;;5036225;28;20030;-82
2023/10/21 04:30:36;;;;;;;7.50;1.50;;;16.10;99.90;;;;;;5038371;28;20496;-81
2023/10/21 04:33:02;;;;;;;4.93;1.60;;;16.10;99.90;;;;;;5040397;28;20025;-83
2023/10/21 04:35:28;;;;;;;4.88;1.88;;;16.10;99.90;;;;;;5037532;28;20404;-83
2023/10/21 04:37:55;;;;;;;4.63;1.67;;;16.10;99.90;;;;;;5039695;28;20025;-82
2023/10/21 04:40:20;;;;;;;8.15;2.00;;;16.10;99.90;;;;;;5037920;28;20034;-82
2023/10/21 04:42:46;;;;;;;3.30;1.30;;;16.10;99.90;;;;;;5033295;28;20082;-83
2023/10/21 04:45:12;;;;;;;8.65;1.73;;;16.20;99.90;;;;;;5038283;28;20049;-82
2023/10/21 04:47:38;;;;;;;10.18;1.80;;;16.20;99.90;;;;;;5037301;28;20025;-82
2023/10/21 04:50:05;;;;;;;3.85;1.48;;;16.20;99.90;;;;;;5039032;28;20021;-82
2023/10/21 04:52:31;;;;;;;4.18;1.60;;;16.20;99.90;;;;;;5039392;28;20068;-82
2023/10/21 04:54:57;;;;;;;7.85;1.73;;;16.20;99.90;;;;;;5036111;28;20057;-83
2023/10/21 04:57:22;;;;;;;8.43;2.05;;;16.20;99.90;;;;;;5031957;28;20061;-82
2023/10/21 04:59:48;;;;;;;4.07;1.50;;;16.20;99.90;;;;;;5039435;28;20029;-82
2023/10/21 05:02:14;;;;;;;11.85;1.85;;;16.20;99.90;;;;;;5038503;28;20392;-83
2023/10/21 05:04:40;;;;;;;7.93;1.70;;;16.10;99.90;;;;;;5037740;28;20392;-83
2023/10/21 05:07:06;;;;;;;6.68;1.95;;;16.10;99.90;;;;;;5039966;28;20070;-83
2023/10/21 05:09:32;;;;;;;7.93;1.60;;;16.20;99.90;;;;;;5037122;28;20473;-82
2023/10/21 05:12:00;;;;;;;8.13;1.75;;;16.20;99.90;;;;;;5039900;28;20138;-83
2023/10/21 05:14:26;;;;;;;21.75;16.08;;;16.20;99.90;;;;;;5065319;27;20053;-83
2023/10/21 05:16:51;;;;;;;7.18;2.70;;;16.20;99.90;;;;;;5045762;28;20017;-82
2023/10/21 05:19:17;;;;;;;4.03;1.70;;;16.20;99.90;;;;;;5039031;28;20053;-83
2023/10/21 05:21:43;;;;;;;8.40;1.70;;;16.20;99.90;;;;;;5034914;28;20064;-76
2023/10/21 05:24:09;;;;;;;7.00;1.85;;;16.20;99.90;;;;;;5032684;28;20030;-76
2023/10/21 05:26:36;;;;;;;10.77;1.90;;;16.20;99.90;;;;;;5030408;28;20033;-76
2023/10/21 05:29:02;;;;;;;8.02;1.70;;;16.20;99.90;;;;;;5037007;28;20009;-76
2023/10/21 05:31:28;;;;;;;6.32;1.95;;;16.20;99.90;;;;;;5033395;28;20514;-76
2023/10/21 05:33:57;;;;;;;6.55;1.55;;;16.20;99.90;;;;;;5035034;28;20021;-76
2023/10/21 05:36:26;;;;;;;9.80;2.00;;;16.20;99.90;;;;;;5035235;28;20037;-75
2023/10/21 05:38:52;;;;;;;9.82;2.35;;;16.20;99.90;;;;;;5033183;28;20021;-76
2023/10/21 05:41:17;;;;;;;7.80;1.80;;;16.20;99.90;;;;;;5031884;28;20386;-76
2023/10/21 05:43:45;;;;;;;4.60;1.83;;;16.20;99.90;;;;;;5041075;28;20032;-76
2023/10/21 05:46:13;;;;;;;4.25;1.30;;;16.20;99.90;;;;;;5034169;28;20097;-76
2023/10/21 05:48:39;;;;;;;5.20;1.90;;;16.20;99.90;;;;;;5032335;28;20465;-76
2023/10/21 05:51:05;;;;;;;7.47;1.60;;;16.20;99.90;;;;;;5031362;28;20070;-76
2023/10/21 05:53:31;;;;;;;6.47;1.33;;;16.20;99.90;;;;;;5036958;28;20024;-76
2023/10/21 05:55:57;;;;;;;7.40;1.75;;;16.20;99.90;;;;;;5035426;28;20036;-75
2023/10/21 05:58:26;;;;;;;7.28;1.92;;;16.20;99.90;;;;;;5038372;28;20025;-76
2023/10/21 06:00:52;;;;;;;7.15;1.60;;;16.20;99.90;;;;;;5035609;28;20032;-76
2023/10/21 06:03:18;;;;;;;4.75;1.50;;;16.30;99.90;;;;;;5039217;28;20670;-76
2023/10/21 06:05:44;;;;;;;3.22;1.40;;;16.30;99.90;;;;;;5040914;28;20098;-76
2023/10/21 06:08:10;;;;;;;11.55;1.67;;;16.30;99.90;;;;;;5038202;28;20033;-76
2023/10/21 06:10:36;;;;;;;5.78;2.00;;;16.30;99.90;;;;;;5042484;28;20025;-76
2023/10/21 06:13:02;;;;;;;6.57;1.75;;;16.40;99.90;;;;;;5058288;27;20077;-76
2023/10/21 06:15:28;;;;;;;8.48;1.70;;;16.40;99.90;;;;;;5039538;28;20029;-76
2023/10/21 06:17:54;;;;;;;6.10;1.92;;;16.40;99.90;;;;;;5038772;28;20029;-76
2023/10/21 06:20:19;;;;;;;6.85;2.22;;;16.40;99.90;;;;;;5042207;28;20029;-75
2023/10/21 06:22:45;;;;;;;9.32;1.98;;;16.40;99.90;;;;;;5038022;28;20022;-75
2023/10/21 06:25:11;;;;;;;6.68;1.88;;;16.40;99.90;;;;;;5040388;28;20468;-76
2023/10/21 06:27:40;;;;;;;6.47;2.00;;;16.40;99.90;;;;;;5040584;28;20074;-76
2023/10/21 06:30:06;;;;;;;12.15;2.30;;;16.40;99.90;;;;;;5039479;28;20022;-76
2023/10/21 06:32:32;;;;;;;9.20;2.40;;;16.40;99.90;;;;;;5042024;28;20451;-76
2023/10/21 06:34:57;;;;;;;6.35;1.80;;;16.40;99.90;;;;;;5038085;28;20136;-76
2023/10/21 06:37:23;;;;;;;8.63;2.13;;;16.40;99.90;;;;;;5038756;28;20029;-75
2023/10/21 06:39:49;;;;;;;8.10;2.22;;;16.40;99.90;;;;;;5041183;28;20025;-76
2023/10/21 06:42:15;;;;;;;11.57;1.95;;;16.40;99.90;;;;;;5061860;27;20051;-76
2023/10/21 06:44:41;;;;;;;5.57;2.05;;;16.40;99.90;;;;;;5039166;27;20029;-75
2023/10/21 06:47:07;;;;;;;5.90;1.83;;;16.40;99.90;;;;;;5043726;28;20065;-76
2023/10/21 06:49:32;;;;;;;10.00;1.88;;;16.40;99.90;;;;;;5045293;28;20163;-76
2023/10/21 06:51:58;;;;;;;4.30;1.92;;;16.40;99.90;;;;;;5044905;28;20036;-83
2023/10/21 06:54:24;;;;;;;7.78;1.75;;;16.40;99.90;;;;;;5051658;28;20547;-82
2023/10/21 06:56:50;;;;;;;4.68;2.03;;;16.40;99.90;;;;;;5048863;28;20033;-82
2023/10/21 06:59:15;;;;;;;4.32;2.03;;;16.50;99.90;;;;;;5049759;28;20107;-82
2023/10/21 07:01:41;;;;;;;6.38;2.45;;;16.50;99.90;;;;;;5012525;28;20064;-82
2023/10/21 07:04:10;;;;;;;8.23;2.10;;;16.50;99.90;;;;;;5023492;28;20090;-82
2023/10/21 07:06:36;;;;;;;9.43;2.15;;;16.50;99.90;;;;;;5044438;28;20038;-82
2023/10/21 07:09:02;;;;;;;12.70;2.08;;;16.50;99.90;;;;;;5044139;28;20032;-82
2023/10/21 07:11:28;;;;;;;7.70;2.08;;;16.60;99.90;;;;;;5049174;28;20025;-82
2023/10/21 07:13:53;;;;;;;3.78;1.60;;;16.60;99.90;;;;;;5113778;27;20023;-82
2023/10/21 07:16:19;;;;;;;8.00;2.13;;;16.60;99.90;;;;;;5117418;27;20021;-82
2023/10/21 07:18:45;;;;;;;6.75;2.35;;;16.70;99.90;;;;;;5048555;28;20021;-82
2023/10/21 07:21:11;;;;;;;8.25;3.10;;;16.70;99.90;;;;;;5048841;28;20093;-82
2023/10/21 07:23:36;;;;;;;11.05;2.28;;;16.70;99.90;;;;;;5048983;28;20049;-81
2023/10/21 07:26:02;;;;;;;5.95;2.53;;;16.70;99.90;;;;;;5036946;28;20033;-82
2023/10/21 07:28:28;;;;;;;8.57;2.08;;;16.60;99.90;;;;;;5048590;28;20569;-81
2023/10/21 07:30:54;;;;;;;5.40;2.08;;;16.70;99.90;;;;;;5028384;28;20033;-82
2023/10/21 07:33:21;;;;;;;6.78;2.22;;;16.70;99.90;;;;;;5033922;28;20025;-82
2023/10/21 07:35:52;;;;;;;6.47;2.70;;;16.70;99.90;;;;;;5022368;28;20076;-83
2023/10/21 07:38:21;;;;;;;4.63;2.95;;;16.80;99.90;;;;;;5013275;28;20021;-82
2023/10/21 07:40:50;;;;;;;9.43;5.68;;;16.70;99.90;;;;;;5034695;28;20025;-83
2023/10/21 07:43:16;;;;;;;10.15;4.40;;;16.70;99.90;;;;;;5039690;28;20045;-82
2023/10/21 07:45:42;;;;;;;8.55;2.40;;;16.70;99.90;;;;;;5030273;28;20045;-82
2023/10/21 07:48:10;;;;;;;4.82;2.08;;;16.80;99.90;;;;;;5021247;28;20036;-82
2023/10/21 07:50:35;;;;;;;7.50;1.67;;;16.80;99.90;;;;;;5024608;28;20026;-82
2023/10/21 07:53:01;;;;;;;5.32;1.67;;;16.80;99.90;;;;;;5028528;28;20479;-82
2023/10/21 07:55:28;;;;;;;4.30;1.85;;;16.90;99.90;;;;;;5023389;28;20030;-82
2023/10/21 07:57:55;;;;;;;5.57;1.70;;;16.90;99.90;;;;;;5025386;28;20018;-82
2023/10/21 08:00:21;;;;;;;4.53;1.80;;;17.00;99.90;;;;;;5039936;28;20033;-82
2023/10/21 08:02:46;;;;;;;6.10;2.45;;;17.00;99.90;;;;;;5031463;28;20125;-82
2023/10/21 08:05:15;;;;;;;5.88;1.83;;;17.00;99.90;;;;;;5029804;28;20032;-82
2023/10/21 08:07:41;;;;;;;10.60;1.88;;;17.00;99.90;;;;;;5030662;28;20024;-83
2023/10/21 08:10:07;;;;;;;6.68;3.03;;;17.00;99.90;;;;;;5034336;28;20018;-83
2023/10/21 08:12:34;;;;;;;8.07;2.28;;;17.00;99.90;;;;;;5030915;27;20052;-80
2023/10/21 08:15:07;;;;;;;5.70;2.33;;;17.00;99.90;;;;;;5038252;28;20017;-81
2023/10/21 08:17:36;;;;;;;4.03;1.83;;;17.00;99.90;;;;;;5028255;28;20037;-83
2023/10/21 08:20:03;;;;;;;3.83;1.90;;;17.10;99.90;;;;;;5027128;28;20728;-82
2023/10/21 08:22:29;;;;;;;3.42;1.75;;;17.10;99.90;;;;;;5043303;28;20041;-81
2023/10/21 08:24:54;;;;;;;7.60;1.60;;;17.10;99.90;;;;;;5040037;28;20453;-82
2023/10/21 08:27:21;;;;;;;6.47;1.65;;;17.20;99.90;;;;;;5043257;28;20025;-83
2023/10/21 08:29:48;;;;;;;6.20;1.70;;;17.20;99.90;;;;;;5028503;28;20018;-83
2023/10/21 08:32:14;;;;;;;7.63;1.92;;;17.30;99.90;;;;;;5026964;28;20036;-83
2023/10/21 08:34:40;;;;;;;7.18;2.22;;;17.30;99.90;;;;;;5041211;28;20041;-82
2023/10/21 08:37:07;;;;;;;8.50;2.25;;;17.40;99.90;;;;;;5047343;28;20093;-82
2023/10/21 08:39:34;;;;;;;6.53;2.13;;;17.50;99.90;;;;;;5027544;28;20080;-82
2023/10/21 08:42:00;;;;;;;5.18;2.10;;;17.60;99.90;;;;;;5041503;27;20029;-82
2023/10/21 08:44:30;;;;;;;4.82;2.67;;;17.70;99.90;;;;;;5131942;27;20015;-83
2023/10/21 08:47:02;;;;;;;6.85;2.10;;;17.80;99.90;;;;;;5128827;27;20030;-83
2023/10/21 08:49:30;;;;;;;4.35;1.90;;;17.80;99.90;;;;;;5045730;28;20032;-83
2023/10/21 08:51:58;;;;;;;2.90;1.58;;;17.90;99.90;;;;;;5043648;28;20025;-84
2023/10/21 08:54:24;;;;;;;7.65;2.28;;;18.00;99.90;;;;;;5034671;28;20640;-75
2023/10/21 08:56:50;;;;;;;4.80;1.92;;;18.00;99.90;;;;;;5035383;28;20076;-75
2023/10/21 08:59:19;;;;;;;7.00;2.10;;;18.10;99.90;;;;;;5022976;28;20076;-75
2023/10/21 09:01:48;;;;;;;3.13;1.40;;;18.20;99.90;;;;;;5020770;28;20120;-75
2023/10/21 09:04:13;;;;;;;6.90;2.33;;;18.20;99.90;;;;;;5013430;28;20045;-75
2023/10/21 09:06:57;;;;;;;6.60;2.45;;;18.30;99.90;;;;;;5023217;28;20537;-75
2023/10/21 09:09:28;;;;;;;8.95;2.47;;;18.40;99.90;;;;;;5021957;28;20092;-75
2023/10/21 09:12:05;;;;;;;4.60;2.13;;;18.50;99.90;;;;;;5032218;28;20113;-75
2023/10/21 09:14:48;;;;;;;7.35;1.95;;;18.50;99.90;;;;;;5018393;28;20025;-76
2023/10/21 09:17:13;;;;;;;3.35;2.03;;;18.60;99.90;;;;;;5036510;28;20029;-75
2023/10/21 09:19:42;;;;;;;5.22;2.65;;;18.70;99.90;;;;;;5036953;28;20033;-83
2023/10/21 09:22:20;;;;;;;8.82;3.20;;;18.70;99.90;;;;;;5029647;28;20014;-83
2023/10/21 09:24:47;;;;;;;14.75;3.50;;;18.70;99.90;;;;;;5028348;28;20064;-83
2023/10/21 09:27:16;;;;;;;23.83;9.32;;;18.90;99.90;;;;;;5031202;28;20033;-83
2023/10/21 09:29:42;;;;;;;7.95;2.90;;;19.00;99.90;;;;;;5045398;28;20024;-83
2023/10/21 09:32:07;;;;;;;12.93;3.95;;;18.90;99.90;;;;;;5050665;28;20025;-83
2023/10/21 09:34:33;;;;;;;5.00;2.67;;;19.00;99.90;;;;;;5052673;28;20107;-83
2023/10/21 09:37:06;;;;;;;8.50;2.22;;;19.10;99.90;;;;;;5033692;28;20025;-83
2023/10/21 09:39:43;;;;;;;12.73;4.85;;;19.10;99.90;;;;;;5032882;28;20048;-83
2023/10/21 09:42:08;;;;;;;6.25;3.22;;;19.10;99.90;;;;;;5044635;27;20055;-83
2023/10/21 09:44:35;;;;;;;6.80;2.70;;;19.20;99.90;;;;;;5136075;27;20035;-83
2023/10/21 09:47:04;;;;;;;13.20;4.97;;;19.30;99.90;;;;;;5105653;27;20408;-83
2023/10/21 09:49:38;;;;;;;29.60;10.65;;;19.30;99.90;;;;;;5044456;28;20033;-83
2023/10/21 09:52:12;;;;;;;12.45;5.28;;;19.20;99.90;;;;;;5043417;28;20029;-83
2023/10/21 09:55:18;;;;;;;15.07;6.32;;;19.30;99.90;;;;;;5030179;28;20014;-82
2023/10/21 09:57:45;;;;;;;6.13;3.00;;;19.20;99.90;;;;;;5016955;28;20394;-83
2023/10/21 10:00:12;;;;;;;8.90;3.58;;;19.30;93.40;;;;;;5030109;28;20029;-82
2023/10/21 10:02:38;;;;;;;5.97;2.70;;;19.30;97.00;;;;;;5041444;28;20021;-83
2023/10/21 10:05:06;;;;;;;11.77;3.13;;;19.50;48.40;;;;;;5050186;28;20101;-83
2023/10/21 10:07:35;;;;;;;7.03;2.38;;;19.50;82.00;;;;;;5034643;28;20029;-84
2023/10/21 10:10:04;;;;;;;8.30;2.50;;;19.50;78.00;;;;;;5030851;28;20362;-83
2023/10/21 10:12:37;;;;;;;8.48;2.20;;;19.50;82.60;;;;;;5031916;28;20037;-83
2023/10/21 10:15:39;;;;;;;5.05;1.90;;;19.50;85.40;;;;;;5032180;28;20021;-82
2023/10/21 10:18:08;;;;;;;9.75;2.25;;;19.60;98.40;;;;;;4966146;28;20406;-83
2023/10/21 10:20:43;;;;;;;5.97;2.00;;;19.60;58.50;;;;;;5035498;28;20524;-83
2023/10/21 10:23:09;;;;;;;7.95;2.10;;;19.70;85.60;;;;;;5049628;28;20028;-83
2023/10/21 10:25:39;;;;;;;5.75;2.13;;;19.70;53.40;;;;;;5043194;28;20429;-83
2023/10/21 10:28:09;;;;;;;7.63;2.40;;;19.70;61.30;;;;;;5029568;28;20110;-83
2023/10/21 10:30:38;;;;;;;5.50;2.10;;;19.80;69.50;;;;;;5010383;28;20716;-84
2023/10/21 10:33:06;;;;;;;3.85;1.73;;;19.80;88.60;;;;;;5037368;28;20040;-84
2023/10/21 10:35:34;;;;;;;9.65;2.90;;;19.90;66.20;;;;;;5041229;28;20045;-82
2023/10/21 10:38:02;;;;;;;11.90;2.30;;;19.90;81.30;;;;;;5011535;28;20450;-82
2023/10/21 10:40:40;;;;;;;3.58;1.83;;;20.00;81.20;;;;;;5048575;28;20112;-82
2023/10/21 10:43:12;;;;;;;5.78;2.13;;;19.90;92.00;;;;;;5090781;27;20031;-82
2023/10/21 10:45:39;;;;;;;9.60;2.00;;;19.90;79.70;;;;;;5127085;27;20359;-82
2023/10/21 10:48:07;;;;;;;8.88;2.42;;;20.00;80.90;;;;;;5043764;28;20028;-82
2023/10/21 10:50:37;;;;;;;6.40;1.95;;;19.90;85.80;;;;;;5051741;28;20024;-82
2023/10/21 10:53:29;;;;;;;4.30;1.90;;;19.90;83.90;;;;;;5050222;28;20108;-82
2023/10/21 10:55:55;;;;;;;6.90;2.20;;;20.00;99.40;;;;;;5010839;28;20041;-83
2023/10/21 10:58:23;;;;;;;4.40;1.63;;;20.00;90.90;;;;;;5022610;28;20021;-83
2023/10/21 11:00:51;;;;;;;4.68;1.98;;;20.10;90.10;;;;;;5047061;28;20029;-83
2023/10/21 11:03:33;;;;;;;5.45;2.15;;;20.20;99.90;;;;;;5051317;28;20029;-83
2023/10/21 11:05:59;;;;;;;9.68;2.92;;;20.20;91.80;;;;;;5037877;28;20026;-83
2023/10/21 11:08:26;;;;;;;4.60;2.35;;;20.20;91.60;;;;;;5039692;28;20490;-83
2023/10/21 11:11:01;;;;;;;5.63;2.30;;;20.30;80.50;;;;;;5037392;28;20025;-83
2023/10/21 11:13:28;;;;;;;3.90;2.13;;;20.30;75.20;;;;;;5053813;27;20021;-83
2023/10/21 11:15:57;;;;;;;4.07;1.70;;;20.30;74.50;;;;;;5037717;28;20033;-83
2023/10/21 11:18:25;;;;;;;3.13;1.75;;;20.30;79.90;;;;;;5037613;28;20023;-83
2023/10/21 11:20:54;;;;;;;2.55;2.00;;;20.40;56.70;;;;;;5040405;28;20037;-83
2023/10/21 11:23:23;;;;;;;5.88;2.10;;;20.40;65.30;;;;;;5039131;28;20026;-83
2023/10/21 11:26:00;;;;;;;5.68;2.10;;;20.40;48.20;;;;;;5039502;28;20025;-83
2023/10/21 11:28:26;;;;;;;7.57;2.10;;;20.40;57.90;;;;;;5053249;28;20025;-83
2023/10/21 11:30:52;;;;;;;8.48;1.92;;;20.40;20.80;;;;;;5038362;28;20472;-83
2023/10/21 11:33:18;;;;;;;3.90;1.50;;;20.40;43.60;;;;;;5038267;28;20028;-83
2023/10/21 11:35:46;;;;;;;2.88;1.40;;;20.40;24.60;;;;;;5038381;28;20094;-82
2023/10/21 11:38:19;;;;;;;5.90;1.73;;;20.40;35.90;;;;;;5037156;28;20084;-83
2023/10/21 11:40:46;;;;;;;7.80;2.10;;;20.40;51.90;;;;;;5038845;28;20393;-83
2023/10/21 11:43:13;;;;;;;5.65;2.15;;;20.40;42.20;;;;;;5049455;27;20370;-84
2023/10/21 11:45:40;;;;;;;7.40;2.00;;;20.40;74.20;;;;;;5034375;28;20033;-84
2023/10/21 11:48:09;;;;;;;4.72;1.80;;;20.40;50.40;;;;;;5040149;28;20030;-84
2023/10/21 11:50:38;;;;;;;3.97;1.92;;;20.40;67.70;;;;;;5040110;28;20181;-83
2023/10/21 11:53:06;;;;;;;4.10;1.90;;;20.40;79.30;;;;;;5038104;28;20025;-83
2023/10/21 12:00:17;;;;;;;8.38;1.80;;;20.50;49.90;;;;;;5057974;28;20025;-84
2023/10/21 12:20:48;;;;;;;7.65;2.47;;;20.70;67.60;;;;;;5035538;28;20097;-83
2023/10/21 12:26:21;;;;;;;7.47;2.35;;;20.60;81.20;;;;;;5037817;28;20028;-84
2023/10/21 12:29:40;;;;;;;4.03;2.03;;;20.60;93.70;;;;;;5036936;28;20017;-83
2023/10/21 12:32:20;;;;;;;5.53;2.17;;;20.70;84.40;;;;;;5036895;28;20029;-84
2023/10/21 12:39:56;;;;;;;6.65;2.78;;;20.70;91.60;;;;;;5037745;28;20124;-83
2023/10/21 12:42:29;;;;;;;6.18;2.13;;;20.70;71.30;;;;;;5038573;28;20037;-82
2023/10/21 12:44:57;;;;;;;6.40;2.35;;;20.70;79.00;;;;;;5033816;28;20544;-84
2023/10/21 12:47:24;;;;;;;6.57;1.75;;;20.70;59.10;;;;;;5038997;28;20029;-84
2023/10/21 12:49:50;;;;;;;10.30;2.03;;;20.70;56.60;;;;;;5039161;28;20029;-84
2023/10/21 12:52:17;;;;;;;4.15;1.95;;;20.70;63.70;;;;;;5041061;28;20025;-84
2023/10/21 12:54:44;;;;;;;4.70;2.53;;;20.60;55.30;;;;;;5033434;28;20017;-83
2023/10/21 12:57:11;;;;;;;7.55;2.03;;;20.60;54.00;;;;;;5039161;28;20029;-83
2023/10/21 12:59:37;;;;;;;8.38;2.30;;;20.60;55.90;;;;;;5039343;28;20022;-83
2023/10/21 13:02:07;;;;;;;7.43;2.03;;;20.60;55.50;;;;;;5036178;28;20037;-84
2023/10/21 13:04:37;;;;;;;5.15;2.00;;;20.50;63.20;;;;;;5032763;28;20098;-84
2023/10/21 13:07:07;;;;;;;4.63;1.70;;;20.50;59.40;;;;;;5040163;28;20093;-83
2023/10/21 13:09:33;;;;;;;10.57;2.22;;;20.50;76.10;;;;;;5044459;28;20021;-83
2023/10/21 13:12:00;;;;;;;5.45;1.70;;;20.50;48.90;;;;;;5041268;27;20017;-83
2023/10/21 13:14:27;;;;;;;5.57;1.60;;;20.50;51.40;;;;;;5053288;27;20006;-84
2023/10/21 13:16:54;;;;;;;5.30;2.13;;;20.50;48.10;;;;;;5041385;28;20033;-83
2023/10/21 13:19:21;;;;;;;4.80;2.10;;;20.50;64.70;;;;;;5043215;28;20012;-83